createdAt,value
2019-03-30T00:00:27.823Z,6.41
2019-03-30T00:03:00.405Z,6.39
2019-03-30T00:05:32.923Z,6.34
2019-03-30T00:08:05.441Z,6.30
2019-03-30T00:10:37.973Z,6.26
2019-03-30T00:13:10.473Z,6.18
2019-03-30T00:15:42.981Z,6.06
2019-03-30T00:18:15.457Z,6.09
2019-03-30T00:20:48.128Z,5.99
2019-03-30T00:23:20.629Z,5.94
2019-03-30T00:25:53.211Z,5.95
2019-03-30T00:28:25.696Z,5.92
2019-03-30T00:30:58.236Z,5.94
2019-03-30T00:33:30.748Z,5.88
2019-03-30T00:36:03.287Z,5.88
2019-03-30T00:38:35.809Z,5.83
2019-03-30T00:41:08.338Z,5.92
2019-03-30T00:43:40.807Z,5.89
2019-03-30T00:46:13.308Z,5.95
2019-03-30T00:48:45.784Z,5.92
2019-03-30T00:51:18.290Z,5.96
2019-03-30T00:53:50.789Z,5.90
2019-03-30T00:56:23.286Z,5.92
2019-03-30T00:58:55.810Z,5.91
2019-03-30T01:01:28.355Z,5.90
2019-03-30T01:04:01.047Z,5.79
2019-03-30T01:06:33.553Z,5.81
2019-03-30T01:09:06.787Z,5.71
2019-03-30T01:11:39.292Z,5.75
2019-03-30T01:14:11.783Z,5.75
2019-03-30T01:16:44.303Z,5.79
2019-03-30T01:19:16.800Z,5.80
2019-03-30T01:21:49.783Z,5.78
2019-03-30T01:24:22.317Z,5.71
2019-03-30T01:26:54.828Z,5.64
2019-03-30T01:29:27.329Z,5.57
2019-03-30T01:31:59.850Z,5.42
2019-03-30T01:34:32.358Z,5.41
2019-03-30T01:37:04.906Z,5.32
2019-03-30T01:39:37.400Z,5.27
2019-03-30T01:42:09.940Z,5.22
2019-03-30T01:44:42.444Z,5.24
2019-03-30T01:47:14.966Z,5.23
2019-03-30T01:49:47.470Z,5.16
2019-03-30T01:52:19.997Z,5.16
2019-03-30T01:54:52.520Z,5.06
2019-03-30T01:57:25.037Z,5.05
2019-03-30T01:59:57.538Z,5.02
2019-03-30T02:02:30.091Z,5.04
2019-03-30T02:05:02.613Z,5.10
2019-03-30T02:07:35.112Z,5.04
2019-03-30T02:10:08.149Z,5.02
2019-03-30T02:12:40.649Z,5.02
2019-03-30T02:15:13.218Z,5.00
2019-03-30T02:17:45.771Z,4.95
2019-03-30T02:20:30.891Z,4.84
2019-03-30T02:23:02.649Z,4.82
2019-03-30T02:25:35.174Z,4.81
2019-03-30T02:28:07.885Z,4.80
2019-03-30T02:30:40.424Z,4.74
2019-03-30T02:33:12.906Z,4.72
2019-03-30T02:35:45.533Z,4.70
2019-03-30T02:38:18.020Z,4.80
2019-03-30T02:40:50.631Z,4.76
2019-03-30T02:43:23.157Z,4.75
2019-03-30T02:45:55.712Z,4.69
2019-03-30T02:48:28.197Z,4.67
2019-03-30T02:51:00.694Z,4.69
2019-03-30T02:53:33.181Z,4.69
2019-03-30T02:56:05.699Z,4.74
2019-03-30T02:58:38.207Z,4.74
2019-03-30T03:01:10.740Z,4.72
2019-03-30T03:03:43.238Z,4.71
2019-03-30T03:06:15.762Z,4.62
2019-03-30T03:08:48.243Z,4.58
2019-03-30T03:11:20.746Z,4.56
2019-03-30T03:13:53.231Z,4.47
2019-03-30T03:16:27.618Z,4.47
2019-03-30T03:19:00.139Z,4.42
2019-03-30T03:21:32.652Z,4.33
2019-03-30T03:24:05.140Z,4.19
2019-03-30T03:26:37.644Z,4.20
2019-03-30T03:29:10.148Z,4.23
2019-03-30T03:31:42.670Z,4.16
2019-03-30T03:34:15.155Z,4.13
2019-03-30T03:36:47.652Z,4.18
2019-03-30T03:39:20.175Z,4.20
2019-03-30T03:41:52.693Z,4.20
2019-03-30T03:44:25.171Z,4.15
2019-03-30T03:46:57.676Z,4.21
2019-03-30T03:49:30.178Z,4.17
2019-03-30T03:52:02.769Z,4.13
2019-03-30T03:54:35.315Z,4.11
2019-03-30T03:57:09.632Z,4.07
2019-03-30T03:59:42.214Z,3.96
2019-03-30T04:02:16.478Z,3.91
2019-03-30T04:04:49.375Z,3.98
2019-03-30T04:07:23.226Z,4.01
2019-03-30T04:09:57.511Z,3.98
2019-03-30T04:12:31.853Z,3.87
2019-03-30T04:15:07.926Z,3.80
2019-03-30T04:17:40.457Z,3.73
2019-03-30T04:20:16.664Z,3.68
2019-03-30T04:22:49.171Z,3.53
2019-03-30T04:25:21.970Z,3.44
2019-03-30T04:27:54.456Z,3.44
2019-03-30T04:30:26.956Z,3.48
2019-03-30T04:32:59.507Z,3.51
2019-03-30T04:35:32.001Z,3.51
2019-03-30T04:38:04.518Z,3.47
2019-03-30T04:40:37.007Z,3.48
2019-03-30T04:43:09.543Z,3.51
2019-03-30T04:45:42.035Z,3.50
2019-03-30T04:48:14.634Z,3.58
2019-03-30T04:50:47.116Z,3.39
2019-03-30T04:53:19.618Z,3.30
2019-03-30T04:55:52.095Z,3.17
2019-03-30T04:58:24.611Z,3.20
2019-03-30T05:00:57.147Z,3.27
2019-03-30T05:03:29.667Z,3.28
2019-03-30T05:06:02.201Z,3.25
2019-03-30T05:08:34.700Z,3.23
2019-03-30T05:11:07.204Z,3.34
2019-03-30T05:13:39.709Z,3.28
2019-03-30T05:16:12.211Z,3.20
2019-03-30T05:18:44.743Z,3.24
2019-03-30T05:21:17.217Z,3.18
2019-03-30T05:23:49.742Z,3.20
2019-03-30T05:26:22.316Z,3.27
2019-03-30T05:28:54.869Z,3.30
2019-03-30T05:31:27.394Z,3.31
2019-03-30T05:33:59.926Z,3.39
2019-03-30T05:36:32.432Z,3.49
2019-03-30T05:39:05.093Z,3.59
2019-03-30T05:41:37.581Z,3.61
2019-03-30T05:44:10.121Z,3.69
2019-03-30T05:46:42.612Z,3.80
2019-03-30T05:49:15.125Z,3.84
2019-03-30T05:51:47.638Z,3.90
2019-03-30T05:54:20.170Z,3.95
2019-03-30T05:56:52.717Z,4.11
2019-03-30T05:59:25.276Z,4.40
2019-03-30T06:01:57.793Z,4.78
2019-03-30T06:04:30.330Z,5.25
2019-03-30T06:07:02.849Z,5.74
2019-03-30T06:09:35.432Z,5.95
2019-03-30T06:12:07.923Z,5.99
2019-03-30T06:14:40.447Z,6.20
2019-03-30T06:17:12.985Z,6.18
2019-03-30T06:19:45.554Z,6.28
2019-03-30T06:22:18.082Z,6.34
2019-03-30T06:24:50.615Z,6.45
2019-03-30T06:27:23.137Z,6.74
2019-03-30T06:30:15.313Z,6.95
2019-03-30T06:32:48.004Z,7.38
2019-03-30T06:35:21.104Z,7.85
2019-03-30T06:37:53.762Z,8.06
2019-03-30T06:40:26.323Z,8.33
2019-03-30T06:42:58.843Z,8.69
2019-03-30T06:45:32.848Z,8.95
2019-03-30T06:48:05.397Z,9.16
2019-03-30T06:50:37.944Z,9.53
2019-03-30T06:53:10.561Z,9.90
2019-03-30T06:55:43.119Z,9.88
2019-03-30T06:58:15.642Z,10.45
2019-03-30T07:00:48.307Z,10.69
2019-03-30T07:03:20.864Z,10.88
2019-03-30T07:05:54.579Z,11.12
2019-03-30T07:08:28.862Z,11.48
2019-03-30T07:11:02.342Z,11.66
2019-03-30T07:13:38.049Z,12.12
2019-03-30T07:16:10.531Z,12.28
2019-03-30T07:18:43.241Z,13.00
2019-03-30T07:21:15.766Z,12.85
2019-03-30T07:23:48.253Z,12.82
2019-03-30T07:26:20.760Z,12.77
2019-03-30T07:28:53.255Z,12.89
2019-03-30T07:31:25.755Z,13.02
2019-03-30T07:33:58.273Z,13.19
2019-03-30T07:36:30.808Z,13.05
2019-03-30T07:39:04.211Z,13.07
2019-03-30T07:41:36.734Z,13.19
2019-03-30T07:44:09.228Z,13.21
2019-03-30T07:46:41.747Z,13.47
2019-03-30T07:49:14.264Z,13.50
2019-03-30T07:51:46.748Z,13.42
2019-03-30T07:54:19.305Z,13.55
2019-03-30T07:57:04.306Z,13.75
2019-03-30T07:59:27.219Z,13.98
2019-03-30T08:01:59.735Z,14.10
2019-03-30T08:04:32.260Z,14.24
2019-03-30T08:07:04.760Z,14.25
2019-03-30T08:09:37.417Z,14.45
2019-03-30T08:12:09.933Z,14.60
2019-03-30T08:14:45.129Z,14.91
2019-03-30T08:17:16.862Z,15.01
2019-03-30T08:19:50.449Z,15.13
2019-03-30T08:22:23.021Z,15.22
2019-03-30T08:24:55.604Z,15.29
2019-03-30T08:27:28.110Z,15.37
2019-03-30T08:30:00.618Z,15.41
2019-03-30T08:32:33.100Z,15.57
2019-03-30T08:35:05.984Z,15.63
2019-03-30T08:37:38.481Z,15.64
2019-03-30T08:40:11.114Z,15.78
2019-03-30T08:42:43.605Z,15.86
2019-03-30T08:45:16.127Z,15.91
2019-03-30T08:47:48.635Z,16.27
2019-03-30T08:50:21.180Z,16.34
2019-03-30T08:52:53.677Z,16.57
2019-03-30T08:55:26.204Z,16.84
2019-03-30T08:57:58.717Z,17.10
2019-03-30T09:00:41.033Z,17.22
2019-03-30T09:03:13.558Z,17.16
2019-03-30T09:05:46.072Z,17.30
2019-03-30T09:08:18.601Z,17.58
2019-03-30T09:10:51.154Z,17.68
2019-03-30T09:13:23.663Z,17.89
2019-03-30T09:15:56.204Z,17.87
2019-03-30T09:18:28.759Z,17.88
2019-03-30T09:21:01.445Z,18.02
2019-03-30T09:23:33.954Z,18.09
2019-03-30T09:26:06.540Z,18.30
2019-03-30T09:28:39.055Z,18.11
2019-03-30T09:31:11.605Z,18.12
2019-03-30T09:33:44.149Z,18.34
2019-03-30T09:36:16.674Z,18.44
2019-03-30T09:38:49.183Z,18.58
2019-03-30T09:41:21.726Z,18.82
2019-03-30T09:43:54.296Z,18.89
2019-03-30T09:46:26.825Z,18.95
2019-03-30T09:48:59.406Z,18.96
2019-03-30T09:51:31.941Z,19.13
2019-03-30T09:54:04.491Z,19.26
2019-03-30T09:56:37.101Z,19.34
2019-03-30T09:59:09.648Z,19.34
2019-03-30T10:01:42.208Z,19.48
2019-03-30T10:04:14.761Z,19.52
2019-03-30T10:06:47.308Z,19.58
2019-03-30T10:09:19.867Z,19.59
2019-03-30T10:11:52.416Z,19.52
2019-03-30T10:14:24.925Z,19.61
2019-03-30T10:16:57.421Z,19.60
2019-03-30T10:19:30.124Z,19.86
2019-03-30T10:22:02.635Z,19.75
2019-03-30T10:24:38.280Z,19.86
2019-03-30T10:27:09.596Z,19.84
2019-03-30T10:29:42.153Z,19.97
2019-03-30T10:32:14.693Z,19.96
2019-03-30T10:34:47.241Z,19.89
2019-03-30T10:37:19.746Z,19.77
2019-03-30T10:39:52.291Z,19.80
2019-03-30T10:42:24.966Z,19.79
2019-03-30T10:44:57.498Z,19.73
2019-03-30T10:47:30.012Z,19.88
2019-03-30T10:50:02.590Z,19.97
2019-03-30T10:52:35.091Z,20.10
2019-03-30T10:55:07.643Z,20.24
2019-03-30T10:57:40.193Z,20.29
2019-03-30T11:00:18.057Z,20.31
2019-03-30T11:02:50.598Z,20.06
2019-03-30T11:05:23.154Z,20.13
2019-03-30T11:07:55.692Z,20.16
2019-03-30T11:10:28.312Z,20.23
2019-03-30T11:13:00.963Z,20.32
2019-03-30T11:15:34.241Z,20.40
2019-03-30T11:18:07.026Z,20.34
2019-03-30T11:20:39.547Z,20.31
2019-03-30T11:23:12.063Z,20.34
2019-03-30T11:25:44.630Z,20.38
2019-03-30T11:28:17.110Z,20.39
2019-03-30T11:30:49.789Z,20.40
2019-03-30T11:33:22.297Z,20.51
2019-03-30T11:35:54.833Z,20.30
2019-03-30T11:38:27.359Z,20.31
2019-03-30T11:40:59.887Z,20.43
2019-03-30T11:43:32.387Z,20.30
2019-03-30T11:46:05.015Z,20.16
2019-03-30T11:48:37.925Z,19.94
2019-03-30T11:51:10.426Z,19.90
2019-03-30T11:53:42.925Z,19.97
2019-03-30T11:56:15.455Z,20.01
2019-03-30T11:58:47.973Z,20.01
2019-03-30T12:01:21.869Z,20.02
2019-03-30T12:03:54.587Z,19.94
2019-03-30T12:06:27.120Z,19.96
2019-03-30T12:08:59.684Z,20.13
2019-03-30T12:11:32.229Z,20.04
2019-03-30T12:14:04.761Z,20.11
2019-03-30T12:16:37.341Z,20.14
2019-03-30T12:19:09.961Z,20.34
2019-03-30T12:21:42.489Z,20.19
2019-03-30T12:24:15.031Z,20.06
2019-03-30T12:26:47.555Z,20.32
2019-03-30T12:29:20.130Z,20.32
2019-03-30T12:31:52.652Z,20.21
2019-03-30T12:34:25.361Z,20.00
2019-03-30T12:36:57.919Z,20.02
2019-03-30T12:39:30.412Z,20.06
2019-03-30T12:42:02.941Z,20.21
2019-03-30T12:44:35.529Z,20.33
2019-03-30T12:47:10.355Z,20.29
2019-03-30T12:49:45.094Z,20.19
2019-03-30T12:52:16.880Z,20.38
2019-03-30T12:54:49.437Z,20.39
2019-03-30T12:57:21.998Z,20.39
2019-03-30T12:59:54.489Z,20.16
2019-03-30T13:02:27.077Z,20.12
2019-03-30T13:04:59.688Z,20.13
2019-03-30T13:07:32.250Z,20.06
2019-03-30T13:10:05.777Z,20.18
2019-03-30T13:12:38.352Z,20.27
2019-03-30T13:15:10.992Z,20.36
2019-03-30T13:17:43.552Z,20.18
2019-03-30T13:20:16.232Z,20.40
2019-03-30T13:22:48.789Z,20.42
2019-03-30T13:25:21.386Z,20.52
2019-03-30T13:27:53.917Z,20.39
2019-03-30T13:30:26.487Z,20.37
2019-03-30T13:32:58.999Z,20.23
2019-03-30T13:35:31.575Z,20.07
2019-03-30T13:38:04.090Z,19.99
2019-03-30T13:40:36.638Z,20.18
2019-03-30T13:43:09.145Z,19.99
2019-03-30T13:45:41.717Z,19.98
2019-03-30T13:48:14.255Z,20.07
2019-03-30T13:50:46.803Z,20.05
2019-03-30T13:53:19.408Z,20.25
2019-03-30T13:55:51.932Z,20.21
2019-03-30T13:58:24.460Z,20.25
2019-03-30T14:00:56.979Z,20.17
2019-03-30T14:03:29.508Z,20.29
2019-03-30T14:06:02.036Z,20.06
2019-03-30T14:08:34.568Z,20.22
2019-03-30T14:11:07.117Z,20.05
2019-03-30T14:13:39.647Z,19.99
2019-03-30T14:16:12.233Z,19.80
2019-03-30T14:18:44.805Z,19.74
2019-03-30T14:21:17.360Z,19.94
2019-03-30T14:23:49.927Z,20.11
2019-03-30T14:26:31.192Z,20.22
2019-03-30T14:28:56.857Z,20.32
2019-03-30T14:31:29.394Z,20.18
2019-03-30T14:34:01.920Z,20.15
2019-03-30T14:36:34.499Z,20.14
2019-03-30T14:39:07.173Z,20.10
2019-03-30T14:41:39.713Z,20.06
2019-03-30T14:44:12.288Z,20.05
2019-03-30T14:46:44.871Z,19.90
2019-03-30T14:49:17.378Z,19.82
2019-03-30T14:51:49.936Z,19.69
2019-03-30T14:54:22.438Z,19.68
2019-03-30T14:56:55.002Z,19.70
2019-03-30T14:59:27.540Z,19.98
2019-03-30T15:02:00.084Z,20.13
2019-03-30T15:04:32.626Z,19.98
2019-03-30T15:07:05.169Z,19.67
2019-03-30T15:09:37.722Z,19.66
2019-03-30T15:12:10.254Z,19.62
2019-03-30T15:14:42.794Z,19.70
2019-03-30T15:17:15.344Z,19.74
2019-03-30T15:19:47.871Z,19.66
2019-03-30T15:22:20.416Z,19.82
2019-03-30T15:24:52.957Z,19.86
2019-03-30T15:27:25.477Z,19.74
2019-03-30T15:29:58.179Z,19.84
2019-03-30T15:32:30.709Z,19.78
2019-03-30T15:35:03.513Z,19.84
2019-03-30T15:37:36.046Z,19.68
2019-03-30T15:40:08.909Z,19.60
2019-03-30T15:42:41.427Z,19.54
2019-03-30T15:45:13.978Z,19.47
2019-03-30T15:47:46.515Z,19.45
2019-03-30T15:50:19.201Z,19.41
2019-03-30T15:52:51.700Z,19.41
2019-03-30T15:55:24.296Z,19.54
2019-03-30T15:57:57.083Z,19.42
2019-03-30T16:00:29.670Z,19.53
2019-03-30T16:03:02.240Z,19.46
2019-03-30T16:05:34.771Z,19.40
2019-03-30T16:08:07.357Z,19.30
2019-03-30T16:10:39.910Z,19.23
2019-03-30T16:13:14.580Z,19.24
2019-03-30T16:15:46.963Z,19.28
2019-03-30T16:18:19.508Z,19.18
2019-03-30T16:20:52.052Z,19.09
2019-03-30T16:23:24.547Z,19.06
2019-03-30T16:25:57.118Z,19.06
2019-03-30T16:28:29.646Z,18.96
2019-03-30T16:31:02.225Z,18.89
2019-03-30T16:33:34.731Z,18.87
2019-03-30T16:36:07.282Z,18.82
2019-03-30T16:38:39.810Z,18.77
2019-03-30T16:41:12.348Z,18.75
2019-03-30T16:43:44.828Z,18.65
2019-03-30T16:46:17.446Z,18.58
2019-03-30T16:48:50.084Z,18.50
2019-03-30T16:51:22.605Z,18.41
2019-03-30T16:53:55.163Z,18.37
2019-03-30T16:56:27.714Z,18.28
2019-03-30T16:59:00.250Z,18.21
2019-03-30T17:01:32.778Z,18.14
2019-03-30T17:04:05.339Z,18.05
2019-03-30T17:06:37.877Z,17.96
2019-03-30T17:09:10.427Z,17.85
2019-03-30T17:11:42.996Z,17.74
2019-03-30T17:14:15.562Z,17.66
2019-03-30T17:16:48.075Z,17.56
2019-03-30T17:19:20.639Z,17.48
2019-03-30T17:21:53.414Z,17.39
2019-03-30T17:24:25.969Z,17.30
2019-03-30T17:26:58.539Z,17.22
2019-03-30T17:29:31.089Z,17.13
2019-03-30T17:32:03.659Z,17.02
2019-03-30T17:34:36.174Z,16.94
2019-03-30T17:37:08.741Z,16.82
2019-03-30T17:39:41.286Z,16.74
2019-03-30T17:42:13.868Z,16.60
2019-03-30T17:44:46.400Z,16.44
2019-03-30T17:47:19.022Z,16.32
2019-03-30T17:49:51.539Z,16.20
2019-03-30T17:52:24.094Z,16.10
2019-03-30T17:54:56.663Z,15.98
2019-03-30T17:57:29.221Z,15.90
2019-03-30T18:00:01.755Z,15.79
2019-03-30T18:02:34.338Z,15.70
2019-03-30T18:05:06.942Z,15.58
2019-03-30T18:07:39.575Z,15.43
2019-03-30T18:10:12.112Z,15.30
2019-03-30T18:12:44.713Z,15.18
2019-03-30T18:15:17.303Z,15.03
2019-03-30T18:17:49.835Z,14.93
2019-03-30T18:20:22.417Z,14.82
2019-03-30T18:22:54.966Z,14.69
2019-03-30T18:25:27.690Z,14.59
2019-03-30T18:28:00.259Z,14.50
2019-03-30T18:30:39.371Z,14.43
2019-03-30T18:33:11.898Z,14.37
2019-03-30T18:35:44.475Z,14.29
2019-03-30T18:38:17.041Z,14.20
2019-03-30T18:40:49.665Z,14.14
2019-03-30T18:43:22.205Z,14.08
2019-03-30T18:45:54.822Z,13.95
2019-03-30T18:48:27.452Z,13.83
2019-03-30T18:51:00.428Z,13.70
2019-03-30T18:53:33.011Z,13.61
2019-03-30T18:56:05.563Z,13.52
2019-03-30T18:58:41.878Z,13.45
2019-03-30T19:01:12.618Z,13.40
2019-03-30T19:03:45.160Z,13.33
2019-03-30T19:06:17.740Z,13.26
2019-03-30T19:08:50.409Z,13.20
2019-03-30T19:11:23.043Z,13.11
2019-03-30T19:13:55.602Z,13.05
2019-03-30T19:16:28.169Z,12.96
2019-03-30T19:19:00.723Z,12.88
2019-03-30T19:21:33.480Z,12.80
2019-03-30T19:24:06.082Z,12.75
2019-03-30T19:26:38.654Z,12.66
2019-03-30T19:29:11.244Z,12.57
2019-03-30T19:31:43.829Z,12.44
2019-03-30T19:34:16.382Z,12.41
2019-03-30T19:36:49.023Z,12.36
2019-03-30T19:39:21.568Z,12.28
2019-03-30T19:41:54.178Z,12.22
2019-03-30T19:44:26.747Z,12.15
2019-03-30T19:46:59.329Z,12.12
2019-03-30T19:49:31.928Z,12.09
2019-03-30T19:52:05.767Z,11.94
2019-03-30T19:54:38.489Z,11.82
2019-03-30T19:57:11.116Z,11.70
2019-03-30T19:59:43.679Z,11.59
2019-03-30T20:02:16.323Z,11.58
2019-03-30T20:04:48.946Z,11.45
2019-03-30T20:07:21.526Z,11.34
2019-03-30T20:09:54.135Z,11.32
2019-03-30T20:12:26.881Z,11.11
2019-03-30T20:14:59.522Z,11.11
2019-03-30T20:17:32.197Z,10.95
2019-03-30T20:20:05.897Z,10.86
2019-03-30T20:22:38.507Z,10.86
2019-03-30T20:25:11.275Z,10.83
2019-03-30T20:27:43.847Z,10.73
2019-03-30T20:30:16.785Z,10.73
2019-03-30T20:32:49.342Z,10.64
2019-03-30T20:35:21.994Z,10.62
2019-03-30T20:37:54.631Z,10.58
2019-03-30T20:40:27.167Z,10.49
2019-03-30T20:42:59.798Z,10.45
2019-03-30T20:45:32.729Z,10.45
2019-03-30T20:48:05.745Z,10.43
2019-03-30T20:50:39.024Z,10.43
2019-03-30T20:53:11.626Z,10.38
2019-03-30T20:55:44.257Z,10.39
2019-03-30T20:58:16.824Z,10.30
2019-03-30T21:00:49.443Z,10.26
2019-03-30T21:03:23.538Z,10.22
2019-03-30T21:05:56.080Z,10.22
2019-03-30T21:08:28.653Z,10.18
2019-03-30T21:11:03.370Z,10.24
2019-03-30T21:13:35.908Z,10.19
2019-03-30T21:16:08.517Z,10.19
2019-03-30T21:18:42.561Z,10.19
2019-03-30T21:21:15.154Z,10.14
2019-03-30T21:23:47.722Z,10.15
2019-03-30T21:26:20.279Z,10.12
2019-03-30T21:28:52.855Z,10.08
2019-03-30T21:31:25.375Z,10.04
2019-03-30T21:33:57.965Z,9.97
2019-03-30T21:36:30.520Z,9.89
2019-03-30T21:39:04.940Z,9.85
2019-03-30T21:41:37.525Z,9.85
2019-03-30T21:44:21.422Z,9.79
2019-03-30T21:46:44.571Z,9.72
2019-03-30T21:49:17.171Z,9.73
2019-03-30T21:51:49.775Z,9.71
2019-03-30T21:54:22.326Z,9.62
2019-03-30T21:56:54.869Z,9.54
2019-03-30T21:59:27.387Z,9.55
2019-03-30T22:01:59.985Z,9.54
2019-03-30T22:04:32.532Z,9.48
2019-03-30T22:07:05.184Z,9.43
2019-03-30T22:09:37.748Z,9.36
2019-03-30T22:12:10.349Z,9.33
2019-03-30T22:14:42.894Z,9.27
2019-03-30T22:17:15.454Z,9.27
2019-03-30T22:19:48.088Z,9.17
2019-03-30T22:22:20.620Z,9.21
2019-03-30T22:24:53.135Z,9.18
2019-03-30T22:27:25.681Z,9.08
2019-03-30T22:29:58.237Z,9.06
2019-03-30T22:32:30.801Z,9.03
2019-03-30T22:35:03.526Z,9.03
2019-03-30T22:37:36.062Z,9.09
2019-03-30T22:40:09.744Z,9.05
2019-03-30T22:42:42.253Z,9.04
2019-03-30T22:45:14.786Z,9.08
2019-03-30T22:47:47.335Z,8.98
2019-03-30T22:50:19.886Z,8.90
2019-03-30T22:52:52.487Z,8.83
2019-03-30T22:55:25.091Z,8.85
2019-03-30T22:57:57.635Z,8.83
2019-03-30T23:00:48.147Z,8.78
2019-03-30T23:03:20.716Z,8.74
2019-03-30T23:05:53.264Z,8.79
2019-03-30T23:08:25.823Z,8.71
2019-03-30T23:10:58.365Z,8.62
2019-03-30T23:13:30.935Z,8.62
2019-03-30T23:16:03.472Z,8.57
2019-03-30T23:18:36.052Z,8.41
2019-03-30T23:21:08.556Z,8.45
2019-03-30T23:23:41.116Z,8.45
2019-03-30T23:26:13.629Z,8.39
2019-03-30T23:28:46.209Z,8.33
2019-03-30T23:31:18.718Z,8.34
2019-03-30T23:33:51.332Z,8.31
2019-03-30T23:36:23.855Z,8.22
2019-03-30T23:38:56.416Z,8.22
2019-03-30T23:41:28.937Z,8.08
2019-03-30T23:44:01.466Z,8.07
2019-03-30T23:46:34.068Z,8.06
2019-03-30T23:49:06.621Z,8.09
2019-03-30T23:51:39.393Z,8.09
2019-03-30T23:54:14.771Z,8.01
2019-03-30T23:56:47.295Z,7.96
2019-03-30T23:59:19.853Z,7.93
